Terminal Aerodrome Forecast
Issued by NWS

Home | Current Version | Previous Version | Text Only | Print | Product List | Glossary On
Versions: 1 2 3 4 5 6 7 8 9 10 11 12 13 14 15 16
310
FTUS46 KSGX 292337
TAFSNA
TAF
KSNA 292337Z 3000/3024 22009KT P6SM FEW018 SCT200
     FM300300 VRB04KT P6SM OVC012
     FM301900 22009KT P6SM SCT020=

USA.gov is the U.S. government's official web portal to all federal, state and local government web resources and services.